CheckWX is a tool to help pilots better visualize weather data.  It is not intended as a substitute for an official pre-flight weather briefing.

01:06:15 UTC

KOZR METAR
Cairns AAF (Fort Rucker) Airport
Fort Rucker/Ozark, Alabama, USA
Current

1 hour ago

KOZR 192356Z AUTO 00000KT 10SM CLR 25/23 A3004 RMK AO2 SLP172 60004 T02450234 10324 20233 53006
Observed
Aug-19 @ 23:56 UTC
Visibility
10 SM
Flight Rules
VFR
Cloud Levels
  • Clear skies
Temperature
25°C / 77°F
Dewpoint
23°C / 73°F
Humidity
89%
Altimeter
30.04" Hg
Pressure
1017.32 hPa
Previous

2 hours ago

KOZR 192330Z AUTO 00000KT 10SM CLR 24/23 A3003 RMK AO2 SLP169
Observed
Aug-19 @ 23:30 UTC
Visibility
10 SM
Flight Rules
VFR
Cloud Levels
  • Clear skies
Temperature
24°C / 75°F
Dewpoint
23°C / 73°F
Humidity
94%
Altimeter
30.03" Hg
Pressure
1016.92 hPa
Previous

2 hours ago

KOZR 192256Z AUTO 19006KT 10SM CLR 25/22 A3001 RMK AO2 SLP162 T02450216
Observed
Aug-19 @ 22:56 UTC
Wind
  • 190° at 6 KTS
Visibility
10 SM
Flight Rules
VFR
Cloud Levels
  • Clear skies
Temperature
25°C / 77°F
Dewpoint
22°C / 72°F
Humidity
83%
Altimeter
30.01" Hg
Pressure
1016.22 hPa